Poplar Creek, Mississippi
Current Conditions -  °F | °C
As of 1:53 PM on Friday 19 Dec 2014 (Local Time) from KGWO Reporting Station
Light Rain Light Rain  
Wind Chill: 44°   Ceiling: 8500
Heat Index: 47°   Visibility: 7mi
Dew Point: 41°   Wind: 7mph
Humidity: 80%   Direction: 20°NNE
Pressure: 30.18"   Gusts: NA
Location:  33.3807°N, 89.5554°W
Report Text: KGWO 191953Z AUTO 02006KT 7SM -RA OVC085 08/05 A3018 RMK AO2 SLP218 P0002 T00830050
Loading
Personal Weather Stations






























Interactive Weather Map New forecast layout! Learn more

10-Day Weather Forecast

Advertisements
Track Severe Weather on mobile